Time;durP1;ratioP1;P1;durP2;ratioP2;P2;SDS_P1;SDS_P2;PMS_P1;PMS_P2;Temp;Humidity;BMP_temperature;BMP_pressure;BME280_temperature;BME280_humidity;BME280_pressure;Samples;Min_cycle;Max_cycle;Signal;HPM_P1;HPM_P2
2023/10/17 00:02:13;;;;;;;2.50;2.30;;;16.70;67.00;17.50;101175.00;;;;5068877;28;20227;-48
2023/10/17 00:04:41;;;;;;;2.50;2.30;;;16.70;67.10;17.50;101174.00;;;;5068817;28;20535;-48
2023/10/17 00:07:08;;;;;;;2.57;2.37;;;16.70;67.20;17.50;101176.00;;;;5069131;28;20194;-48
2023/10/17 00:09:37;;;;;;;2.47;2.27;;;16.70;67.20;17.50;101181.00;;;;5069325;28;20246;-48
2023/10/17 00:12:14;;;;;;;2.53;2.33;;;16.70;67.20;17.50;101179.00;;;;5069019;28;20200;-48
2023/10/17 00:14:58;;;;;;;2.47;2.27;;;16.60;67.10;17.50;101168.00;;;;5068814;28;20188;-48
2023/10/17 00:17:23;;;;;;;2.50;2.30;;;16.60;67.10;17.50;101159.00;;;;5067475;28;20236;-47
2023/10/17 00:19:49;;;;;;;2.67;2.47;;;16.60;67.10;17.50;101166.00;;;;5067911;28;20189;-48
2023/10/17 00:22:18;;;;;;;2.73;2.30;;;16.60;67.10;17.50;101159.00;;;;5068172;28;20183;-48
2023/10/17 00:24:46;;;;;;;2.30;2.10;;;16.60;67.10;17.50;101159.00;;;;5065475;28;20183;-48
2023/10/17 00:27:13;;;;;;;2.43;2.23;;;16.60;67.10;17.30;101165.00;;;;5064124;28;20186;-48
2023/10/17 00:29:38;;;;;;;2.53;2.33;;;16.60;67.20;17.50;101154.00;;;;5056939;28;20212;-48
2023/10/17 00:32:04;;;;;;;2.63;2.43;;;16.60;67.20;17.50;101164.00;;;;5063538;28;20710;-48
2023/10/17 00:34:30;;;;;;;2.40;2.20;;;16.60;67.30;17.50;101155.00;;;;5061177;28;20201;-48
2023/10/17 00:37:30;;;;;;;2.30;2.10;;;16.60;67.40;17.50;101155.00;;;;5068039;28;20183;-48
2023/10/17 00:39:48;;;;;;;2.30;2.10;;;16.60;67.40;17.50;101149.00;;;;5064462;28;20248;-48
2023/10/17 00:42:34;;;;;;;2.37;2.17;;;16.60;67.40;17.50;101157.00;;;;5067215;28;20225;-48
2023/10/17 00:45:00;;;;;;;2.43;2.23;;;16.60;67.40;17.40;101158.00;;;;5068184;28;20212;-47
2023/10/17 00:47:27;;;;;;;2.50;2.30;;;16.60;67.40;17.40;101164.00;;;;5068669;28;20187;-47
2023/10/17 00:49:52;;;;;;;2.43;2.23;;;16.50;67.30;17.40;101159.00;;;;5067705;28;20205;-48
2023/10/17 00:52:26;;;;;;;2.20;2.10;;;16.50;67.30;17.40;101162.00;;;;5066695;28;20183;-48
2023/10/17 00:54:56;;;;;;;2.60;2.40;;;16.50;67.50;17.40;101150.00;;;;5066417;28;20235;-48
2023/10/17 00:57:26;;;;;;;2.53;2.33;;;16.50;67.60;17.40;101146.00;;;;5066550;28;20187;-47
2023/10/17 00:59:55;;;;;;;2.53;2.10;;;16.50;67.50;17.40;101146.00;;;;5068041;28;20326;-50
2023/10/17 01:02:23;;;;;;;2.40;2.03;;;16.50;67.50;17.40;101141.00;;;;5068427;28;20188;-48
2023/10/17 01:04:51;;;;;;;2.40;2.20;;;16.50;67.40;17.40;101135.00;;;;5065605;28;20196;-48
2023/10/17 01:07:26;;;;;;;2.40;2.20;;;16.50;67.50;17.40;101137.00;;;;5063313;28;20183;-48
2023/10/17 01:09:55;;;;;;;2.10;2.00;;;16.50;67.60;17.40;101139.00;;;;5067476;28;20222;-48
2023/10/17 01:12:26;;;;;;;2.47;2.27;;;16.50;67.60;17.40;101157.00;;;;5069797;28;20597;-52
2023/10/17 01:14:53;;;;;;;2.33;2.13;;;16.50;67.70;17.40;101145.00;;;;5074809;28;20219;-48
2023/10/17 01:17:27;;;;;;;2.10;2.00;;;16.50;67.60;17.30;101142.00;;;;5068554;28;20241;-49
2023/10/17 01:19:57;;;;;;;2.40;2.20;;;16.50;67.80;17.30;101131.00;;;;5067999;28;20200;-48
2023/10/17 01:22:23;;;;;;;2.50;2.30;;;16.50;67.70;17.30;101138.00;;;;5069763;28;20182;-48
2023/10/17 01:24:49;;;;;;;2.93;2.10;;;16.50;67.70;17.30;101134.00;;;;5048190;28;20187;-47
2023/10/17 01:27:15;;;;;;;2.47;2.17;;;16.40;67.70;17.30;101131.00;;;;5051636;28;20189;-47
2023/10/17 01:29:44;;;;;;;2.50;2.30;;;16.50;67.80;17.30;101133.00;;;;5066495;28;20213;-48
2023/10/17 01:32:10;;;;;;;2.10;2.00;;;16.40;67.80;17.30;101128.00;;;;5067732;28;20888;-48
2023/10/17 01:34:36;;;;;;;2.33;2.13;;;16.40;67.80;17.30;101132.00;;;;5067221;28;20317;-48
2023/10/17 01:37:03;;;;;;;2.07;1.97;;;16.40;67.70;17.30;101123.00;;;;5067656;28;20230;-48
2023/10/17 01:39:29;;;;;;;2.20;2.00;;;16.40;67.70;17.30;101122.00;;;;5067501;28;20206;-47
2023/10/17 01:41:55;;;;;;;2.40;2.20;;;16.40;67.80;17.10;101135.00;;;;5067422;28;20307;-48
2023/10/17 01:44:21;;;;;;;2.03;1.93;;;16.40;67.70;17.30;101129.00;;;;5067864;28;20271;-48
2023/10/17 01:46:46;;;;;;;2.27;2.07;;;16.40;67.80;17.30;101129.00;;;;5067395;28;20260;-47
2023/10/17 01:49:13;;;;;;;2.47;1.97;;;16.40;67.70;17.30;101120.00;;;;5067184;28;20216;-48
2023/10/17 01:51:42;;;;;;;2.03;1.93;;;16.40;67.80;17.30;101125.00;;;;5067239;28;20239;-47
2023/10/17 01:54:12;;;;;;;2.13;1.97;;;16.40;67.80;17.20;101126.00;;;;5069113;28;20190;-48
2023/10/17 01:56:47;;;;;;;2.30;2.10;;;16.40;67.80;17.20;101111.00;;;;5070003;28;20209;-48
2023/10/17 01:59:27;;;;;;;2.07;1.97;;;16.40;67.80;17.20;101114.00;;;;5071200;28;20197;-48
2023/10/17 02:01:59;;;;;;;2.50;2.30;;;16.40;67.80;17.20;101116.00;;;;5070933;28;20693;-48
2023/10/17 02:04:25;;;;;;;1.97;1.87;;;16.30;67.70;17.20;101113.00;;;;5070869;28;20184;-48
2023/10/17 02:06:51;;;;;;;2.20;2.00;;;16.30;67.80;17.20;101106.00;;;;5062162;28;20187;-47
2023/10/17 02:09:24;;;;;;;2.00;1.90;;;16.30;67.70;17.20;101109.00;;;;5054050;28;20302;-48
2023/10/17 02:11:54;;;;;;;2.20;2.00;;;16.30;67.90;17.20;101116.00;;;;5055978;28;20285;-48
2023/10/17 02:14:21;;;;;;;2.30;2.10;;;16.30;67.90;17.10;101111.00;;;;5060025;28;20191;-47
2023/10/17 02:16:48;;;;;;;2.07;1.87;;;16.30;67.80;17.10;101109.00;;;;5069315;28;20178;-47
2023/10/17 02:19:14;;;;;;;2.20;2.00;;;16.30;67.90;17.10;101110.00;;;;5070373;28;20402;-47
2023/10/17 02:21:41;;;;;;;2.53;2.07;;;16.30;67.90;17.10;101099.00;;;;5070481;28;20712;-48
2023/10/17 02:24:07;;;;;;;2.00;1.90;;;16.30;67.90;17.10;101112.00;;;;5059139;28;20244;-47
2023/10/17 02:26:42;;;;;;;2.10;2.00;;;16.20;67.80;17.10;101105.00;;;;5055610;28;20644;-47
2023/10/17 02:29:11;;;;;;;2.20;2.00;;;16.20;67.70;17.10;101119.00;;;;5046608;28;20707;-47
2023/10/17 02:31:40;;;;;;;2.37;2.17;;;16.20;67.80;17.10;101108.00;;;;5055367;28;20280;-47
2023/10/17 02:34:09;;;;;;;2.13;1.93;;;16.20;68.00;17.10;101110.00;;;;5047655;28;20174;-48
2023/10/17 02:36:35;;;;;;;1.97;1.87;;;16.20;67.80;17.10;101091.00;;;;5053949;28;20170;-49
2023/10/17 02:39:01;;;;;;;1.80;1.70;;;16.20;68.00;17.10;101114.00;;;;5065828;28;20680;-48
2023/10/17 02:41:28;;;;;;;2.10;2.00;;;16.20;68.00;17.10;101112.00;;;;5066949;28;20623;-48
2023/10/17 02:43:54;;;;;;;2.60;2.00;;;16.20;68.10;17.10;101119.00;;;;5070626;28;20189;-48
2023/10/17 02:46:26;;;;;;;2.13;1.90;;;16.10;67.90;16.80;101104.00;;;;5070302;28;20198;-48
2023/10/17 02:48:53;;;;;;;2.00;1.90;;;16.20;68.00;17.10;101102.00;;;;5069943;28;20219;-47
2023/10/17 02:53:52;;;;;;;2.27;2.07;;;16.10;67.90;17.00;101038.00;;;;5070245;28;20194;-48
2023/10/17 02:56:20;;;;;;;2.10;1.90;;;16.10;67.90;17.10;101091.00;;;;5069862;28;20181;-48
2023/10/17 02:58:51;;;;;;;2.20;2.00;;;16.10;67.90;17.00;101087.00;;;;5069932;28;20268;-48
2023/10/17 03:01:22;;;;;;;2.23;2.03;;;16.10;67.90;17.00;101088.00;;;;5070702;28;21046;-48
2023/10/17 03:03:50;;;;;;;2.00;1.90;;;16.10;68.10;17.00;101090.00;;;;5072170;28;20201;-47
2023/10/17 03:06:18;;;;;;;1.90;1.80;;;16.10;68.20;17.00;101088.00;;;;5082278;28;20182;-47
2023/10/17 03:08:51;;;;;;;2.10;2.00;;;16.10;68.10;17.00;101088.00;;;;5071644;28;20212;-47
2023/10/17 03:11:35;;;;;;;2.10;1.90;;;16.10;68.20;17.00;101085.00;;;;5071825;28;20543;-47
2023/10/17 03:14:22;;;;;;;2.10;1.90;;;16.10;68.30;17.00;101086.00;;;;5072342;28;20892;-48
2023/10/17 03:16:55;;;;;;;2.10;1.90;;;16.10;68.20;16.90;101087.00;;;;5072336;28;20189;-47
2023/10/17 03:19:25;;;;;;;2.30;2.10;;;16.10;68.10;16.90;101084.00;;;;5076254;28;20190;-47
2023/10/17 03:21:55;;;;;;;1.93;1.83;;;16.00;68.10;16.90;101089.00;;;;5076371;28;20211;-47
2023/10/17 03:24:28;;;;;;;1.90;1.80;;;16.00;68.90;16.90;101082.00;;;;5069218;28;20258;-47
2023/10/17 03:27:03;;;;;;;2.30;1.87;;;16.00;68.10;16.90;101080.00;;;;5069054;28;20232;-47
2023/10/17 03:29:34;;;;;;;2.23;1.83;;;16.00;68.20;16.90;101082.00;;;;5067501;28;20266;-47
2023/10/17 03:32:04;;;;;;;2.27;2.07;;;16.00;68.40;16.90;101072.00;;;;5070920;28;20209;-47
2023/10/17 03:34:35;;;;;;;3.93;1.90;;;16.00;68.50;16.90;101074.00;;;;5070903;28;20269;-48
2023/10/17 03:37:49;;;;;;;4.73;2.17;;;16.00;68.70;16.90;101077.00;;;;5070988;28;20186;-48
2023/10/17 03:40:02;;;;;;;4.87;2.30;;;16.00;68.50;16.80;101075.00;;;;5059363;28;20206;-49
2023/10/17 03:42:41;;;;;;;3.43;2.00;;;16.00;68.70;16.90;101072.00;;;;5055403;28;20190;-47
2023/10/17 03:45:35;;;;;;;5.57;2.00;;;15.90;68.90;16.80;101089.00;;;;5067434;28;20207;-48
2023/10/17 03:47:59;;;;;;;2.93;2.20;;;15.90;68.70;16.80;101079.00;;;;5068451;28;20787;-47
2023/10/17 03:50:57;;;;;;;3.73;1.77;;;16.00;68.70;16.80;101077.00;;;;5069901;28;20209;-48
2023/10/17 03:53:28;;;;;;;2.80;1.80;;;15.90;68.50;16.80;101090.00;;;;5070777;28;20176;-47
2023/10/17 03:55:54;;;;;;;2.37;1.80;;;16.00;68.60;16.80;101079.00;;;;5070411;28;20194;-48
2023/10/17 04:00:54;;;;;;;4.27;2.10;;;16.00;68.50;16.80;101084.00;;;;5068038;28;20296;-47
2023/10/17 04:03:23;;;;;;;1.93;1.83;;;16.00;68.50;16.70;101079.00;;;;5069552;28;20188;-47
2023/10/17 04:05:52;;;;;;;1.90;1.80;;;15.90;68.40;16.80;101094.00;;;;5068872;28;20181;-51
2023/10/17 04:08:31;;;;;;;3.30;2.07;;;15.90;68.40;16.80;101105.00;;;;5071200;28;20218;-47
2023/10/17 04:11:17;;;;;;;2.53;1.77;;;15.90;68.30;16.80;101101.00;;;;5070229;28;20574;-47
2023/10/17 04:13:45;;;;;;;3.73;1.97;;;15.90;68.20;16.70;101084.00;;;;5068853;28;20202;-47
2023/10/17 04:16:14;;;;;;;1.97;1.83;;;15.90;68.20;16.80;101091.00;;;;5069215;28;20182;-48
2023/10/17 04:18:41;;;;;;;2.10;1.87;;;15.90;68.20;16.80;101089.00;;;;5069546;28;20184;-47
2023/10/17 04:21:27;;;;;;;4.30;1.90;;;15.90;68.10;16.80;101099.00;;;;5069317;28;20205;-48
2023/10/17 04:23:59;;;;;;;2.50;2.00;;;15.90;68.10;16.70;101107.00;;;;5066665;28;20398;-48
2023/10/17 04:26:28;;;;;;;1.73;1.63;;;15.90;68.20;16.70;101106.00;;;;5069207;28;20239;-48
2023/10/17 04:29:00;;;;;;;2.83;1.90;;;15.90;68.30;16.70;101093.00;;;;5062838;28;20228;-49
2023/10/17 04:31:28;;;;;;;2.90;1.70;;;15.90;68.40;16.70;101105.00;;;;5069172;28;20205;-48
2023/10/17 04:34:14;;;;;;;3.90;2.00;;;15.90;68.40;16.70;101092.00;;;;5068587;28;20213;-48
2023/10/17 04:36:40;;;;;;;3.60;1.73;;;15.90;68.30;16.70;101093.00;;;;5069119;28;20200;-48
2023/10/17 04:39:11;;;;;;;9.73;2.23;;;15.90;68.30;16.70;101080.00;;;;5068851;28;20196;-48
2023/10/17 04:44:25;;;;;;;7.00;2.33;;;15.80;68.30;16.70;101076.00;;;;5069013;28;20184;-48
2023/10/17 04:49:35;;;;;;;13.43;2.70;;;15.80;68.30;16.60;101073.00;;;;5051270;28;20257;-48
2023/10/17 04:52:18;;;;;;;9.67;2.70;;;15.80;68.30;16.60;101074.00;;;;5054867;28;20210;-48
2023/10/17 04:54:43;;;;;;;8.20;2.60;;;15.80;68.30;16.60;101067.00;;;;5070672;28;20239;-48
2023/10/17 04:57:12;;;;;;;7.77;2.73;;;15.70;68.30;16.60;101068.00;;;;5079224;28;20655;-48
2023/10/17 05:02:48;;;;;;;8.13;2.37;;;15.70;68.50;16.60;101060.00;;;;5061015;28;20329;-48
2023/10/17 05:08:11;;;;;;;4.93;2.23;;;15.70;68.30;16.60;101060.00;;;;5071614;28;20181;-48
2023/10/17 06:18:52;;;;;;;1.80;1.70;;;15.60;68.30;16.40;101117.00;;;;5057675;28;20251;-48
2023/10/17 06:21:18;;;;;;;2.23;1.80;;;15.60;68.40;16.40;101106.00;;;;5062950;28;20198;-48
2023/10/17 06:26:53;;;;;;;1.80;1.60;;;15.50;68.30;16.40;101107.00;;;;5068528;28;20280;-52
2023/10/17 06:34:38;;;;;;;2.77;1.67;;;15.50;68.40;16.40;101117.00;;;;5066795;28;20531;-48
2023/10/17 06:37:07;;;;;;;3.20;1.60;;;15.50;68.50;16.40;101117.00;;;;5052987;28;20865;-47
2023/10/17 06:39:36;;;;;;;7.03;2.00;;;15.50;68.60;16.40;101119.00;;;;5055447;28;20253;-49
2023/10/17 06:42:14;;;;;;;4.10;1.80;;;15.50;68.90;16.30;101112.00;;;;5055579;28;20203;-48
2023/10/17 06:44:51;;;;;;;5.13;2.20;;;15.50;69.10;16.30;101119.00;;;;5063001;28;20182;-48
2023/10/17 06:47:41;;;;;;;2.77;1.97;;;15.50;69.30;16.30;101120.00;;;;5081709;28;20185;-48
2023/10/17 06:55:28;;;;;;;3.90;2.00;;;15.60;70.00;16.30;101120.00;;;;5051935;28;20201;-48
2023/10/17 06:58:08;;;;;;;4.13;1.87;;;15.60;70.00;16.40;101122.00;;;;5045828;28;20235;-47
2023/10/17 07:00:51;;;;;;;2.57;1.70;;;15.70;70.00;16.40;101114.00;;;;5077297;28;20292;-48
2023/10/17 07:03:24;;;;;;;1.70;1.60;;;15.80;69.90;16.50;101119.00;;;;5062934;28;20212;-48
2023/10/17 07:05:55;;;;;;;2.83;1.97;;;15.90;69.70;16.50;101110.00;;;;5069951;28;20186;-47
2023/10/17 07:08:21;;;;;;;2.10;1.70;;;16.10;69.70;16.60;101058.00;;;;5063033;28;20206;-48
2023/10/17 07:11:09;;;;;;;1.97;1.73;;;16.10;69.50;16.70;101111.00;;;;5056574;28;20728;-47
2023/10/17 07:24:25;;;;;;;2.33;1.97;;;16.90;69.50;17.10;101092.00;;;;5069137;28;20180;-48
2023/10/17 07:26:55;;;;;;;1.80;1.60;;;17.00;69.50;17.30;101101.00;;;;5069620;28;20644;-47
2023/10/17 07:29:22;;;;;;;3.20;1.57;;;17.10;69.50;17.40;101090.00;;;;5066345;28;20896;-48
2023/10/17 07:31:55;;;;;;;1.80;1.60;;;17.20;69.80;17.50;101093.00;;;;5071141;28;20212;-47
2023/10/17 07:34:24;;;;;;;3.23;1.83;;;17.30;70.00;17.50;101096.00;;;;5071222;28;20180;-47
2023/10/17 07:37:05;;;;;;;2.17;1.70;;;17.40;70.00;17.60;101093.00;;;;5071248;28;20190;-48
2023/10/17 07:39:36;;;;;;;3.90;1.90;;;17.40;70.20;17.70;101094.00;;;;5070703;28;20186;-47
2023/10/17 07:42:03;;;;;;;1.63;1.50;;;17.40;70.40;17.70;101095.00;;;;5070226;28;20220;-48
2023/10/17 07:44:34;;;;;;;2.73;2.00;;;17.50;70.70;17.80;101091.00;;;;5070595;28;20195;-47
2023/10/17 07:47:09;;;;;;;1.90;1.73;;;17.50;70.90;17.80;101088.00;;;;5070419;28;20203;-48
2023/10/17 07:49:43;;;;;;;1.70;1.60;;;17.50;70.80;17.90;101080.00;;;;5066928;28;20201;-48
2023/10/17 07:52:10;;;;;;;3.53;1.60;;;17.50;70.60;17.90;101083.00;;;;5069672;28;20279;-48
2023/10/17 07:54:45;;;;;;;4.13;1.90;;;17.50;70.60;17.90;101079.00;;;;5069289;28;20212;-47
2023/10/17 07:57:17;;;;;;;1.50;1.40;;;17.50;70.50;18.00;101082.00;;;;5070192;28;20690;-48
2023/10/17 07:59:52;;;;;;;2.57;1.67;;;17.50;70.40;18.00;101082.00;;;;5069567;28;20702;-48
2023/10/17 08:02:23;;;;;;;4.60;1.60;;;17.50;70.30;18.00;101085.00;;;;5069148;28;20207;-48
2023/10/17 08:04:49;;;;;;;2.20;1.67;;;17.50;70.30;18.00;101082.00;;;;5070375;28;20192;-48
2023/10/17 08:07:16;;;;;;;2.67;1.70;;;17.50;70.30;18.00;101082.00;;;;5070531;28;20199;-49
2023/10/17 08:09:50;;;;;;;2.60;1.70;;;17.50;70.30;18.00;101083.00;;;;5069885;28;20635;-48
2023/10/17 08:12:22;;;;;;;2.20;1.70;;;17.50;70.30;18.00;101084.00;;;;5070009;28;20184;-48
2023/10/17 08:14:58;;;;;;;1.60;1.50;;;17.50;70.40;18.00;101066.00;;;;5070652;28;20258;-48
2023/10/17 08:17:34;;;;;;;1.70;1.60;;;17.50;70.30;17.80;101076.00;;;;5070138;28;20662;-48
2023/10/17 08:20:00;;;;;;;1.60;1.50;;;17.50;70.40;18.00;101075.00;;;;5061531;28;20235;-48
2023/10/17 08:22:27;;;;;;;1.53;1.30;;;17.40;70.30;18.00;101059.00;;;;5068257;28;20185;-48
2023/10/17 08:24:53;;;;;;;2.40;1.43;;;17.40;70.30;18.00;101056.00;;;;5069046;28;20671;-48
2023/10/17 08:29:57;;;;;;;1.77;1.60;;;17.40;70.30;18.00;101064.00;;;;5068865;28;20216;-48
2023/10/17 08:35:38;;;;;;;1.73;1.50;;;17.30;70.50;18.00;101073.00;;;;5065904;28;20183;-46
2023/10/17 08:37:44;;;;;;;3.93;1.80;;;17.40;70.60;18.00;101084.00;;;;5062588;28;20194;-47
2023/10/17 08:40:29;;;;;;;2.47;1.63;;;17.30;70.70;18.00;101084.00;;;;5075787;28;20255;-49
2023/10/17 08:43:19;;;;;;;5.47;2.20;;;17.30;70.80;18.00;101075.00;;;;5069738;28;20185;-49
2023/10/17 08:45:50;;;;;;;5.23;2.07;;;17.40;70.90;18.00;101065.00;;;;5069252;28;20668;-49
2023/10/17 08:48:16;;;;;;;6.77;1.77;;;17.30;70.80;17.90;101069.00;;;;5068145;28;20655;-48
2023/10/17 08:50:43;;;;;;;3.37;1.97;;;17.30;70.80;17.90;101076.00;;;;5066870;28;20197;-48
2023/10/17 08:53:23;;;;;;;2.60;1.90;;;17.30;70.80;17.90;101073.00;;;;5075651;28;20245;-48
2023/10/17 08:55:50;;;;;;;1.93;1.67;;;17.30;70.70;17.90;101077.00;;;;5069023;28;20325;-48
2023/10/17 08:58:30;;;;;;;5.27;1.90;;;17.30;70.70;17.90;101080.00;;;;5069605;28;20180;-48
2023/10/17 09:00:57;;;;;;;6.67;1.73;;;17.20;70.70;17.90;101084.00;;;;5069454;28;20207;-48
2023/10/17 09:03:36;;;;;;;3.33;1.77;;;17.20;70.70;17.90;101073.00;;;;5068941;28;20179;-48
2023/10/17 09:08:49;;;;;;;2.47;1.63;;;17.20;70.70;17.90;101084.00;;;;5053150;28;20500;-48
2023/10/17 09:11:25;;;;;;;4.13;1.70;;;17.20;70.70;17.90;101085.00;;;;5052413;28;20254;-48
2023/10/17 09:16:16;;;;;;;2.50;1.50;;;17.20;70.70;17.90;101078.00;;;;5069485;28;20264;-48
2023/10/17 09:18:49;;;;;;;4.00;1.87;;;17.10;70.60;17.80;101091.00;;;;5069560;28;20202;-48
2023/10/17 09:21:16;;;;;;;1.77;1.40;;;17.10;70.50;17.80;101078.00;;;;5068456;28;20672;-49
2023/10/17 09:23:42;;;;;;;5.03;2.17;;;17.10;70.60;17.80;101082.00;;;;5068099;28;20229;-49
2023/10/17 09:26:10;;;;;;;3.37;1.60;;;17.10;70.60;17.80;101070.00;;;;5069418;28;20660;-48
2023/10/17 09:28:36;;;;;;;3.90;1.90;;;17.10;70.70;17.80;101076.00;;;;5062602;28;20291;-48
2023/10/17 09:31:06;;;;;;;2.53;1.60;;;17.10;70.70;17.80;101066.00;;;;5068898;28;20191;-47
2023/10/17 09:33:43;;;;;;;2.87;1.60;;;17.00;70.60;17.80;101068.00;;;;5069284;28;20223;-47
2023/10/17 09:36:09;;;;;;;1.87;1.60;;;17.00;70.60;17.80;101062.00;;;;5068416;28;20262;-48
2023/10/17 09:38:41;;;;;;;2.33;1.60;;;17.00;70.60;17.80;101062.00;;;;5069152;28;20215;-48
2023/10/17 09:41:08;;;;;;;2.03;1.60;;;17.00;70.50;17.70;101063.00;;;;5068825;28;20217;-47
2023/10/17 09:43:36;;;;;;;1.80;1.50;;;17.00;70.60;17.80;101061.00;;;;5067793;28;20250;-48
2023/10/17 09:46:02;;;;;;;2.37;1.60;;;17.00;70.60;17.70;101064.00;;;;5068797;28;20199;-47
2023/10/17 09:48:36;;;;;;;1.67;1.50;;;17.00;70.70;17.70;101068.00;;;;5068981;28;20181;-48
2023/10/17 09:51:03;;;;;;;1.50;1.40;;;17.00;70.70;17.70;101065.00;;;;5068834;28;20202;-48
2023/10/17 09:53:32;;;;;;;1.97;1.50;;;17.00;70.70;17.70;101078.00;;;;5069408;28;20192;-48
2023/10/17 09:56:00;;;;;;;1.93;1.47;;;16.90;70.70;17.70;101074.00;;;;5069401;28;20264;-47
2023/10/17 09:58:33;;;;;;;1.93;1.53;;;16.90;70.60;17.70;101056.00;;;;5068091;28;20316;-48
2023/10/17 10:01:05;;;;;;;2.33;1.60;;;17.00;70.70;17.70;101076.00;;;;5067958;28;20192;-47
2023/10/17 10:03:32;;;;;;;1.60;1.47;;;16.90;70.70;17.70;101070.00;;;;5068043;28;20280;-47
2023/10/17 10:06:22;;;;;;;2.80;1.40;;;16.90;70.70;17.70;101069.00;;;;5069068;28;20208;-49
2023/10/17 10:08:48;;;;;;;2.03;1.60;;;16.90;70.70;17.70;101065.00;;;;5068488;28;20264;-48
2023/10/17 10:11:17;;;;;;;1.87;1.47;;;16.90;70.70;17.70;101057.00;;;;5064782;28;20696;-47
2023/10/17 10:14:04;;;;;;;1.70;1.60;;;16.90;70.70;17.70;101055.00;;;;5067897;28;20241;-48
2023/10/17 10:16:57;;;;;;;2.80;1.50;;;16.90;70.70;17.70;101047.00;;;;5056459;28;20560;-48
2023/10/17 10:19:24;;;;;;;3.13;1.83;;;16.90;70.70;17.70;101039.00;;;;5049078;28;20189;-48
2023/10/17 10:21:54;;;;;;;1.70;1.60;;;16.90;70.70;17.70;101045.00;;;;5058991;28;20201;-48
2023/10/17 10:24:26;;;;;;;1.83;1.57;;;16.90;70.80;17.70;101055.00;;;;5056847;28;20667;-48
2023/10/17 10:27:10;;;;;;;1.27;1.17;;;16.90;70.90;17.70;101060.00;;;;5069762;28;20659;-49
2023/10/17 10:29:37;;;;;;;1.47;1.37;;;16.90;70.90;17.70;101054.00;;;;5067648;28;20469;-49
2023/10/17 10:32:06;;;;;;;1.60;1.50;;;16.90;70.90;17.70;101051.00;;;;5057965;28;20254;-49
2023/10/17 10:34:35;;;;;;;2.07;1.47;;;16.90;70.90;17.70;101036.00;;;;5061305;28;20186;-49
2023/10/17 10:37:03;;;;;;;2.13;1.70;;;16.90;70.90;17.70;101047.00;;;;5051802;28;20217;-47
2023/10/17 10:39:30;;;;;;;2.13;1.50;;;16.90;70.80;17.70;101035.00;;;;5055029;28;20272;-49
2023/10/17 10:42:00;;;;;;;1.70;1.50;;;16.90;70.80;17.70;101053.00;;;;5058608;28;20678;-48
2023/10/17 10:44:27;;;;;;;1.47;1.37;;;16.90;70.90;17.60;101041.00;;;;5056379;28;20182;-48
2023/10/17 10:46:54;;;;;;;1.43;1.33;;;16.90;70.80;17.70;101047.00;;;;5063129;28;20665;-51
2023/10/17 10:49:30;;;;;;;1.33;1.27;;;16.90;70.80;17.70;101043.00;;;;5058359;28;20295;-48
2023/10/17 10:51:58;;;;;;;1.40;1.30;;;16.90;70.90;17.70;101038.00;;;;5054645;28;20284;-47
2023/10/17 10:54:59;;;;;;;2.37;1.50;;;16.90;70.90;17.70;101030.00;;;;5060650;28;20177;-47
2023/10/17 10:57:28;;;;;;;1.60;1.50;;;16.90;70.70;17.70;101031.00;;;;5068347;28;20567;-48
2023/10/17 10:59:54;;;;;;;1.87;1.33;;;16.90;70.80;17.70;101019.00;;;;5052877;28;20200;-48
2023/10/17 11:02:20;;;;;;;2.13;1.60;;;16.90;70.80;17.70;101017.00;;;;5055701;28;20232;-48
2023/10/17 11:04:49;;;;;;;1.50;1.40;;;16.90;70.80;17.70;101025.00;;;;5058252;28;20207;-48
2023/10/17 11:07:20;;;;;;;1.67;1.50;;;16.90;70.70;17.70;101015.00;;;;5060401;28;20188;-48
2023/10/17 11:10:07;;;;;;;2.77;1.47;;;16.90;70.70;17.70;101014.00;;;;5071283;28;20229;-48
2023/10/17 11:12:36;;;;;;;3.37;1.50;;;16.90;70.80;17.70;101011.00;;;;5070323;28;20305;-48
2023/10/17 11:15:18;;;;;;;3.50;1.67;;;16.90;70.10;17.70;101014.00;;;;5070381;28;20273;-47
2023/10/17 11:17:45;;;;;;;3.10;1.70;;;16.90;68.70;17.70;101024.00;;;;5071821;28;20674;-47
2023/10/17 11:20:20;;;;;;;2.10;1.60;;;16.80;67.20;17.70;101007.00;;;;5071407;28;20276;-47
2023/10/17 11:22:46;;;;;;;1.93;1.80;;;16.80;66.90;17.60;101013.00;;;;5071620;28;20181;-48
2023/10/17 11:25:21;;;;;;;1.90;1.60;;;16.80;66.80;17.60;101005.00;;;;5070826;28;20188;-47
2023/10/17 11:27:53;;;;;;;2.43;2.00;;;16.80;66.00;17.60;101014.00;;;;5063858;28;20188;-48
2023/10/17 11:30:32;;;;;;;2.10;1.63;;;16.70;65.30;17.60;101011.00;;;;5070981;28;20769;-47
2023/10/17 11:33:05;;;;;;;4.63;1.80;;;16.70;64.10;17.60;100991.00;;;;5070229;28;20191;-48
2023/10/17 11:35:37;;;;;;;3.07;1.93;;;16.70;63.60;17.50;101000.00;;;;5069891;28;20268;-48
2023/10/17 11:38:03;;;;;;;2.17;1.70;;;16.70;63.60;17.50;100990.00;;;;5071058;28;20236;-47
2023/10/17 11:40:47;;;;;;;1.93;1.80;;;16.60;62.50;17.50;100990.00;;;;5070721;28;20209;-47
2023/10/17 11:43:20;;;;;;;2.17;1.80;;;16.60;62.40;17.50;100986.00;;;;5070919;28;20190;-48
2023/10/17 11:45:46;;;;;;;2.00;1.70;;;16.70;62.30;17.50;100980.00;;;;5053794;28;20207;-48
2023/10/17 11:48:26;;;;;;;3.87;1.70;;;16.60;62.00;17.50;100984.00;;;;5066349;28;20614;-48
2023/10/17 11:51:17;;;;;;;2.60;1.80;;;16.60;61.90;17.50;100976.00;;;;5069957;28;20205;-48
2023/10/17 11:54:09;;;;;;;2.13;1.83;;;16.60;61.80;17.50;100971.00;;;;5070572;28;20183;-48
2023/10/17 11:56:38;;;;;;;1.60;1.50;;;16.70;61.50;17.50;100982.00;;;;5070436;28;20236;-48
2023/10/17 11:59:06;;;;;;;1.60;1.50;;;16.60;61.00;17.50;100979.00;;;;5070180;28;20713;-47
2023/10/17 12:01:32;;;;;;;2.20;2.00;;;16.60;60.90;17.50;100975.00;;;;5070257;28;20199;-48
2023/10/17 12:04:00;;;;;;;1.70;1.60;;;16.70;61.10;17.50;100970.00;;;;5066519;28;20547;-48
2023/10/17 12:06:26;;;;;;;1.90;1.70;;;16.60;60.10;17.50;100972.00;;;;5070416;28;20662;-47
2023/10/17 12:08:54;;;;;;;1.80;1.70;;;16.70;60.50;17.50;100970.00;;;;5069808;28;20291;-48
2023/10/17 12:11:20;;;;;;;2.23;1.70;;;16.70;60.50;17.50;100952.00;;;;5069781;28;20200;-48
2023/10/17 12:13:46;;;;;;;1.87;1.60;;;16.70;60.90;17.50;100953.00;;;;5070157;28;20186;-48
2023/10/17 12:16:13;;;;;;;1.70;1.60;;;16.70;60.90;17.60;100947.00;;;;5069711;28;20183;-48
2023/10/17 12:18:38;;;;;;;1.70;1.60;;;16.70;61.10;17.60;100951.00;;;;5066789;28;20662;-47
2023/10/17 12:21:04;;;;;;;1.73;1.63;;;16.70;60.90;17.40;100947.00;;;;5055551;28;20218;-48
2023/10/17 12:23:31;;;;;;;1.90;1.70;;;16.70;60.50;17.60;100951.00;;;;5064119;28;20196;-48
2023/10/17 12:25:58;;;;;;;2.23;1.83;;;16.80;60.60;17.60;100952.00;;;;5068199;28;20192;-48
2023/10/17 12:28:26;;;;;;;1.73;1.63;;;16.80;60.70;17.60;100954.00;;;;5067777;28;20185;-48
2023/10/17 12:30:53;;;;;;;2.07;1.80;;;16.70;60.50;17.60;100935.00;;;;5065626;28;20222;-48
2023/10/17 12:33:23;;;;;;;2.10;1.70;;;16.70;59.70;17.60;100937.00;;;;5064550;28;20658;-49
2023/10/17 12:35:50;;;;;;;2.40;1.80;;;16.70;59.80;17.60;100941.00;;;;5059780;28;20656;-47
2023/10/17 12:38:33;;;;;;;1.90;1.70;;;16.80;60.00;17.60;100934.00;;;;5068409;28;20178;-48
2023/10/17 12:40:59;;;;;;;2.17;1.90;;;16.70;59.30;17.60;100932.00;;;;5070049;28;20218;-48
2023/10/17 12:43:24;;;;;;;1.97;1.70;;;16.60;58.50;17.60;100919.00;;;;5072670;28;20184;-48
2023/10/17 12:45:50;;;;;;;2.70;1.60;;;16.70;58.20;17.60;100923.00;;;;5068054;28;20303;-48
2023/10/17 12:48:16;;;;;;;1.97;1.77;;;16.80;58.70;17.60;100913.00;;;;5068622;28;20663;-48
2023/10/17 12:50:44;;;;;;;2.10;1.80;;;16.80;59.00;17.70;100920.00;;;;5068134;28;20208;-47
2023/10/17 12:53:14;;;;;;;1.83;1.63;;;16.80;59.10;17.60;100914.00;;;;5063263;28;20211;-48
2023/10/17 12:55:40;;;;;;;1.40;1.30;;;16.80;58.90;17.70;100906.00;;;;5068471;28;20176;-48
2023/10/17 12:58:07;;;;;;;1.70;1.60;;;16.80;58.90;17.70;100907.00;;;;5066547;28;20665;-49
2023/10/17 13:00:34;;;;;;;1.77;1.60;;;16.80;58.50;17.70;100902.00;;;;5062215;28;20196;-47
2023/10/17 13:03:00;;;;;;;1.77;1.57;;;16.80;58.70;17.70;100889.00;;;;5060920;28;20242;-48
2023/10/17 13:05:26;;;;;;;1.97;1.60;;;16.90;58.70;17.70;100893.00;;;;5067553;28;20674;-48